This is the latest recevied weather packets stored in our database for station/object KO4ZGL-13. If no packets are shown the sender has not sent any weather packets the latest 10 day(s).
| Time | Temp. | Humidity | Pressure | Rain* | Wind** | Luminosity | Snow |
|---|---|---|---|---|---|---|---|
| 1788203954 | 32.78° C | 71% | 1018.9 hPa | 0 mm | - | 468 W/m² | - |
| 1788203650 | 32.78° C | 71% | 1018.9 hPa | 0 mm | - | 566 W/m² | - |
| 1788203347 | 32.78° C | 71% | 1019 hPa | 0 mm | - | 636 W/m² | - |
| 1788203046 | 32.78° C | 72% | 1019.3 hPa | 0 mm | - | 678 W/m² | - |
| 1788202745 | 31.67° C | 74% | 1019 hPa | 0 mm | - | 664 W/m² | - |
| 1788202441 | 32.22° C | 75% | 1019.2 hPa | 0 mm | - | 545 W/m² | - |
| 1788202141 | 32.22° C | 76% | 1019.2 hPa | 0 mm | - | 587 W/m² | - |
| 1788201836 | 31.67° C | 77% | 1019.1 hPa | 0 mm | - | 396 W/m² | - |
| 1788201531 | 32.22° C | 76% | 1019.2 hPa | 0 mm | - | 384 W/m² | - |
| 1788201231 | 31.67° C | 77% | 1019.3 hPa | 0 mm | - | 501 W/m² | - |
| 1788200930 | 32.22° C | 75% | 1019.4 hPa | 0 mm | - | 247 W/m² | - |
| 1788200625 | 32.78° C | 73% | 1019.4 hPa | 0 mm | - | 413 W/m² | - |
| 1788200321 | 31.67° C | 76% | 1019.5 hPa | 0 mm | - | 617 W/m² | - |
| 1788200016 | 32.78° C | 74% | 1019.4 hPa | 0 mm | - | 203 W/m² | - |
| 1788199710 | 32.22° C | 73% | 1019.7 hPa | 0 mm | - | 617 W/m² | - |
| 1788199405 | 31.67° C | 74% | 1019.7 hPa | 0 mm | - | 239 W/m² | - |
| 1788199104 | 32.78° C | 73% | 1019.8 hPa | 0 mm | - | 206 W/m² | - |
| 1788198801 | 32.78° C | 71% | 1019.8 hPa | 0 mm | - | 721 W/m² | - |
| 1788198497 | 33.33° C | 70% | 1020.2 hPa | 0 mm | - | 718 W/m² | - |
| 1788198192 | 32.78° C | 72% | 1020.2 hPa | 0 mm | - | 592 W/m² | - |
| 1788197891 | 32.78° C | 72% | 1020.2 hPa | 0 mm | - | 663 W/m² | - |
| 1788197585 | 32.78° C | 71% | 1020.1 hPa | 0 mm | - | 596 W/m² | - |
| 1788197281 | 32.78° C | 69% | 1020.3 hPa | 0 mm | - | 466 W/m² | - |
| 1788196975 | 32.78° C | 71% | 1020.2 hPa | 0 mm | - | 351 W/m² | - |
| 1788196670 | 32.78° C | 70% | 1020.5 hPa | 0 mm | - | 642 W/m² | - |
* Rain latest hour (hover to see other rain measurements)
** Current wind speed in m/s (hover to see current wind gust speed)